Time;durP1;ratioP1;P1;durP2;ratioP2;P2;SDS_P1;SDS_P2;PMS_P1;PMS_P2;Temp;Humidity;BMP_temperature;BMP_pressure;BME280_temperature;BME280_humidity;BME280_pressure;Samples;Min_cycle;Max_cycle;Signal;HPM_P1;HPM_P2
2022/10/16 00:01:35;;;;;;;12.05;5.30;;;;;;;;;;5071125;28;20521;-42
2022/10/16 00:04:00;;;;;;;9.13;5.28;;;;;;;;;;5070943;28;20609;-41
2022/10/16 00:06:27;;;;;;;13.55;4.88;;;;;;;;;;5071149;28;20012;-44
2022/10/16 00:08:52;;;;;;;11.02;4.60;;;;;;;;;;5070689;28;20017;-41
2022/10/16 00:11:22;;;;;;;12.18;5.13;;;;;;;;;;5070713;28;20027;-42
2022/10/16 00:13:48;;;;;;;9.63;4.65;;;;;;;;;;5070900;28;20059;-42
2022/10/16 00:16:14;;;;;;;13.43;5.50;;;;;;;;;;5070724;28;20063;-42
2022/10/16 00:18:40;;;;;;;11.68;5.10;;;;;;;;;;5071174;28;20064;-41
2022/10/16 00:21:10;;;;;;;11.63;4.88;;;;;;;;;;5070819;28;20050;-41
2022/10/16 00:23:36;;;;;;;10.20;5.50;;;;;;;;;;5070353;28;20024;-43
2022/10/16 00:26:02;;;;;;;9.90;4.97;;;;;;;;;;5071217;28;20051;-40
2022/10/16 00:28:28;;;;;;;9.30;5.20;;;;;;;;;;5070452;28;20031;-42
2022/10/16 00:30:54;;;;;;;13.18;5.75;;;;;;;;;;5070449;28;20021;-42
2022/10/16 00:33:19;;;;;;;8.05;4.60;;;;;;;;;;5070906;28;20471;-43
2022/10/16 00:35:45;;;;;;;7.05;4.90;;;;;;;;;;5070772;28;20028;-42
2022/10/16 00:38:10;;;;;;;8.05;5.18;;;;;;;;;;5070695;28;20059;-44
2022/10/16 00:40:36;;;;;;;10.15;5.43;;;;;;;;;;5070237;28;20090;-42
2022/10/16 00:43:01;;;;;;;12.73;5.50;;;;;;;;;;5071006;28;20021;-42
2022/10/16 00:45:26;;;;;;;9.43;5.50;;;;;;;;;;5070723;28;20013;-43
2022/10/16 00:47:53;;;;;;;10.85;5.25;;;;;;;;;;5070647;28;20024;-43
2022/10/16 00:50:23;;;;;;;10.88;5.82;;;;;;;;;;5070856;28;20024;-42
2022/10/16 00:52:50;;;;;;;10.63;4.90;;;;;;;;;;5070864;28;20112;-42
2022/10/16 00:55:15;;;;;;;10.45;5.20;;;;;;;;;;5070610;28;20130;-41
2022/10/16 00:57:41;;;;;;;15.52;6.28;;;;;;;;;;5070459;28;20500;-42
2022/10/16 01:00:08;;;;;;;12.18;5.63;;;;;;;;;;5070873;28;20468;-42
2022/10/16 01:02:33;;;;;;;8.68;5.80;;;;;;;;;;5070601;28;20214;-42
2022/10/16 01:04:59;;;;;;;11.85;5.60;;;;;;;;;;5052150;28;20075;-43
2022/10/16 01:07:59;;;;;;;11.65;5.40;;;;;;;;;;5070285;28;20514;-43
2022/10/16 01:10:33;;;;;;;11.25;5.13;;;;;;;;;;4969381;28;20042;-43
2022/10/16 01:13:04;;;;;;;9.35;6.07;;;;;;;;;;5053667;28;20032;-42
2022/10/16 01:15:52;;;;;;;13.18;5.70;;;;;;;;;;5070503;28;20075;-41
2022/10/16 01:18:32;;;;;;;10.15;5.40;;;;;;;;;;5070567;28;20042;-41
2022/10/16 01:21:03;;;;;;;12.73;5.72;;;;;;;;;;5073406;28;20024;-42
2022/10/16 01:23:32;;;;;;;10.35;5.57;;;;;;;;;;5073863;28;20036;-42
2022/10/16 01:26:14;;;;;;;11.70;6.20;;;;;;;;;;5073945;28;20024;-41
2022/10/16 01:28:42;;;;;;;9.55;5.47;;;;;;;;;;5073409;28;20094;-44
2022/10/16 01:31:09;;;;;;;10.43;6.05;;;;;;;;;;5074256;28;20032;-43
2022/10/16 01:33:49;;;;;;;13.18;5.95;;;;;;;;;;5073354;28;20024;-43
2022/10/16 01:36:20;;;;;;;9.88;5.75;;;;;;;;;;5073470;28;20360;-42
2022/10/16 01:38:48;;;;;;;9.40;5.50;;;;;;;;;;5073438;28;20032;-41
2022/10/16 01:41:17;;;;;;;13.35;5.70;;;;;;;;;;5073069;28;20032;-42
2022/10/16 01:43:48;;;;;;;10.43;5.88;;;;;;;;;;5073698;28;20092;-42
2022/10/16 01:46:16;;;;;;;8.55;5.70;;;;;;;;;;5073601;28;20040;-42
2022/10/16 01:48:42;;;;;;;9.90;5.95;;;;;;;;;;5073357;28;20375;-41
2022/10/16 01:51:09;;;;;;;11.05;6.18;;;;;;;;;;5072938;28;20103;-44
2022/10/16 01:53:35;;;;;;;13.02;6.38;;;;;;;;;;5072980;28;20447;-44
2022/10/16 01:56:02;;;;;;;13.32;7.05;;;;;;;;;;5073839;28;20047;-37
2022/10/16 01:58:27;;;;;;;8.90;5.82;;;;;;;;;;5073121;28;20380;-44
2022/10/16 02:00:54;;;;;;;15.18;6.30;;;;;;;;;;5073547;28;20016;-44
2022/10/16 02:03:20;;;;;;;17.55;6.18;;;;;;;;;;5072652;28;20078;-43
2022/10/16 02:05:46;;;;;;;13.13;6.22;;;;;;;;;;5073023;28;20020;-40
2022/10/16 02:08:12;;;;;;;18.15;6.88;;;;;;;;;;5073306;28;20024;-42
2022/10/16 02:10:37;;;;;;;16.02;6.13;;;;;;;;;;5054754;28;20031;-43
2022/10/16 02:13:08;;;;;;;19.48;6.93;;;;;;;;;;5073285;28;20066;-41
2022/10/16 02:15:34;;;;;;;12.98;6.80;;;;;;;;;;5072573;28;20028;-44
2022/10/16 02:17:59;;;;;;;9.68;6.30;;;;;;;;;;5072714;28;20051;-43
2022/10/16 02:20:28;;;;;;;11.82;6.80;;;;;;;;;;5072793;28;20392;-43
2022/10/16 02:22:54;;;;;;;15.25;6.75;;;;;;;;;;5072883;28;20045;-42
2022/10/16 02:25:24;;;;;;;16.60;7.03;;;;;;;;;;5072308;28;20353;-42
2022/10/16 02:28:12;;;;;;;18.83;7.93;;;;;;;;;;5072684;28;20013;-43
2022/10/16 02:30:43;;;;;;;16.42;7.13;;;;;;;;;;5055597;28;20476;-42
2022/10/16 02:33:10;;;;;;;18.67;7.47;;;;;;;;;;5072446;28;20024;-40
2022/10/16 02:35:37;;;;;;;12.52;7.55;;;;;;;;;;5072783;28;20484;-40
2022/10/16 02:38:02;;;;;;;12.75;7.32;;;;;;;;;;5072768;28;20020;-43
2022/10/16 02:40:28;;;;;;;13.15;7.57;;;;;;;;;;5072320;28;20550;-43
2022/10/16 02:42:54;;;;;;;15.52;7.50;;;;;;;;;;5072222;28;20040;-42
2022/10/16 02:45:19;;;;;;;18.25;7.93;;;;;;;;;;5072343;28;20012;-41
2022/10/16 02:47:45;;;;;;;15.27;7.65;;;;;;;;;;5071778;28;20099;-42
2022/10/16 02:50:10;;;;;;;12.80;7.20;;;;;;;;;;5072266;28;20356;-44
2022/10/16 02:52:36;;;;;;;17.95;8.57;;;;;;;;;;5071784;28;20027;-41
2022/10/16 02:55:01;;;;;;;13.60;8.48;;;;;;;;;;5071998;28;20159;-43
2022/10/16 02:57:26;;;;;;;12.73;7.32;;;;;;;;;;5071607;28;20048;-38
2022/10/16 02:59:52;;;;;;;12.40;7.93;;;;;;;;;;5072350;28;20498;-41
2022/10/16 03:02:17;;;;;;;13.98;8.18;;;;;;;;;;5072079;28;20384;-43
2022/10/16 03:04:42;;;;;;;15.45;8.35;;;;;;;;;;5071446;28;20023;-43
2022/10/16 03:07:08;;;;;;;13.98;7.65;;;;;;;;;;5072427;28;20103;-44
2022/10/16 03:09:33;;;;;;;12.73;7.55;;;;;;;;;;5071869;28;20056;-43
2022/10/16 03:11:59;;;;;;;15.75;8.45;;;;;;;;;;5072216;28;20513;-42
2022/10/16 03:14:24;;;;;;;16.50;7.75;;;;;;;;;;5071255;28;20020;-43
2022/10/16 03:16:50;;;;;;;14.57;7.28;;;;;;;;;;5070908;28;20050;-43
2022/10/16 03:19:18;;;;;;;17.13;7.03;;;;;;;;;;5071753;28;20054;-42
2022/10/16 03:21:43;;;;;;;20.42;7.70;;;;;;;;;;5071678;28;20028;-41
2022/10/16 03:24:09;;;;;;;19.08;7.82;;;;;;;;;;5071528;28;20028;-44
2022/10/16 03:26:34;;;;;;;17.17;7.75;;;;;;;;;;5071368;28;20402;-43
2022/10/16 03:28:59;;;;;;;22.90;8.65;;;;;;;;;;5071409;28;20028;-42
2022/10/16 03:31:25;;;;;;;17.35;9.55;;;;;;;;;;5071774;28;20016;-43
2022/10/16 03:33:50;;;;;;;18.73;7.88;;;;;;;;;;5071493;28;20232;-42
2022/10/16 03:36:15;;;;;;;21.75;9.32;;;;;;;;;;5071338;28;20025;-43
2022/10/16 03:38:40;;;;;;;16.55;7.88;;;;;;;;;;5071585;28;20016;-43
2022/10/16 03:41:07;;;;;;;14.85;8.07;;;;;;;;;;5070945;28;20052;-41
2022/10/16 03:43:33;;;;;;;12.25;7.32;;;;;;;;;;5070575;28;20115;-42
2022/10/16 03:45:58;;;;;;;19.38;7.47;;;;;;;;;;5070689;28;20100;-42
2022/10/16 03:48:23;;;;;;;15.85;7.85;;;;;;;;;;5071021;28;20082;-42
2022/10/16 03:50:50;;;;;;;18.55;8.27;;;;;;;;;;5071229;28;20021;-44
2022/10/16 03:53:15;;;;;;;12.23;7.88;;;;;;;;;;5071437;28;20472;-41
2022/10/16 03:55:41;;;;;;;14.95;8.25;;;;;;;;;;5070414;28;20021;-43
2022/10/16 03:58:07;;;;;;;14.40;7.10;;;;;;;;;;5070894;28;20032;-42
2022/10/16 04:00:32;;;;;;;14.10;8.43;;;;;;;;;;5070928;28;20024;-41
2022/10/16 04:02:57;;;;;;;14.63;8.55;;;;;;;;;;5070535;28;20040;-42
2022/10/16 04:05:23;;;;;;;11.82;7.78;;;;;;;;;;5071042;28;20044;-42
2022/10/16 04:07:48;;;;;;;15.40;7.50;;;;;;;;;;5070790;28;20032;-44
2022/10/16 04:10:13;;;;;;;15.38;7.95;;;;;;;;;;5070972;28;20027;-41
2022/10/16 04:12:39;;;;;;;15.27;8.48;;;;;;;;;;5070866;28;20095;-43
2022/10/16 04:15:04;;;;;;;17.83;8.43;;;;;;;;;;5052691;28;20031;-43
2022/10/16 04:17:30;;;;;;;17.35;9.40;;;;;;;;;;5071057;28;20042;-43
2022/10/16 04:19:55;;;;;;;11.65;7.78;;;;;;;;;;5070525;28;20025;-42
2022/10/16 04:22:20;;;;;;;12.63;7.50;;;;;;;;;;5070494;28;20036;-44
2022/10/16 04:24:46;;;;;;;17.58;7.90;;;;;;;;;;5070969;28;20016;-43
2022/10/16 04:27:11;;;;;;;20.55;7.60;;;;;;;;;;5070676;28;20095;-41
2022/10/16 04:29:36;;;;;;;16.70;8.50;;;;;;;;;;5070924;28;20027;-43
2022/10/16 04:32:01;;;;;;;14.80;8.50;;;;;;;;;;5070533;28;20017;-42
2022/10/16 04:34:27;;;;;;;16.65;8.90;;;;;;;;;;5071059;28;20039;-45
2022/10/16 04:36:52;;;;;;;18.40;8.68;;;;;;;;;;5070463;28;20016;-43
2022/10/16 04:39:18;;;;;;;16.20;9.05;;;;;;;;;;5070617;28;20035;-42
2022/10/16 04:41:43;;;;;;;20.92;9.32;;;;;;;;;;5070683;28;20040;-44
2022/10/16 04:44:08;;;;;;;14.70;8.52;;;;;;;;;;5070899;28;20041;-44
2022/10/16 04:46:34;;;;;;;15.40;8.52;;;;;;;;;;5070687;28;20047;-43
2022/10/16 04:48:59;;;;;;;14.45;8.77;;;;;;;;;;5070284;28;20029;-43
2022/10/16 04:51:25;;;;;;;17.73;9.02;;;;;;;;;;5070155;28;20023;-42
2022/10/16 04:53:50;;;;;;;15.55;8.98;;;;;;;;;;5072140;28;20056;-43
2022/10/16 04:56:16;;;;;;;16.63;9.75;;;;;;;;;;5073894;28;20543;-43
2022/10/16 04:58:41;;;;;;;17.67;9.23;;;;;;;;;;5074148;28;20024;-42
2022/10/16 05:01:06;;;;;;;24.23;9.90;;;;;;;;;;5074337;28;20356;-42
2022/10/16 05:03:32;;;;;;;16.48;9.45;;;;;;;;;;5073376;28;20123;-42
2022/10/16 05:05:57;;;;;;;19.63;9.13;;;;;;;;;;5074160;28;20028;-41
2022/10/16 05:08:22;;;;;;;20.90;9.85;;;;;;;;;;5074273;28;20020;-43
2022/10/16 05:10:48;;;;;;;14.70;9.23;;;;;;;;;;5074187;28;20059;-41
2022/10/16 05:13:13;;;;;;;16.55;9.70;;;;;;;;;;5073996;28;20025;-44
2022/10/16 05:15:38;;;;;;;14.30;8.77;;;;;;;;;;5055454;28;20028;-42
2022/10/16 05:18:04;;;;;;;17.77;9.57;;;;;;;;;;5073988;28;20021;-41
2022/10/16 05:20:29;;;;;;;24.15;10.65;;;;;;;;;;5073701;28;20673;-43
2022/10/16 05:22:55;;;;;;;18.17;9.88;;;;;;;;;;5074176;28;20498;-42
2022/10/16 05:25:20;;;;;;;22.45;10.57;;;;;;;;;;5073705;28;20399;-42
2022/10/16 05:27:49;;;;;;;17.80;10.63;;;;;;;;;;5073230;28;20040;-43
2022/10/16 05:30:14;;;;;;;19.98;9.82;;;;;;;;;;5074114;28;20163;-42
2022/10/16 05:32:39;;;;;;;20.83;10.38;;;;;;;;;;5073355;28;20111;-40
2022/10/16 05:35:05;;;;;;;18.80;10.48;;;;;;;;;;5073542;28;20459;-37
2022/10/16 05:37:30;;;;;;;22.73;10.50;;;;;;;;;;5073255;28;20017;-44
2022/10/16 05:39:55;;;;;;;20.02;10.05;;;;;;;;;;5073680;28;20912;-42
2022/10/16 05:42:21;;;;;;;17.55;9.85;;;;;;;;;;5073851;28;20044;-44
2022/10/16 05:44:46;;;;;;;25.15;12.02;;;;;;;;;;5073530;28;20017;-43
2022/10/16 05:47:14;;;;;;;25.90;13.65;;;;;;;;;;5073404;28;20016;-45
2022/10/16 05:49:40;;;;;;;22.85;12.20;;;;;;;;;;5073163;28;20079;-44
2022/10/16 05:52:05;;;;;;;24.92;10.40;;;;;;;;;;5073540;28;20467;-43
2022/10/16 05:54:31;;;;;;;18.00;10.60;;;;;;;;;;5073305;28;20043;-42
2022/10/16 05:56:56;;;;;;;16.17;10.27;;;;;;;;;;5073209;28;20450;-43
2022/10/16 05:59:21;;;;;;;15.97;9.53;;;;;;;;;;5073344;28;20059;-44
2022/10/16 06:01:46;;;;;;;19.45;11.45;;;;;;;;;;5073105;28;20289;-41
2022/10/16 06:04:12;;;;;;;16.70;9.43;;;;;;;;;;5072804;28;20103;-42
2022/10/16 06:06:37;;;;;;;16.10;9.68;;;;;;;;;;5072436;28;20055;-43
2022/10/16 06:09:03;;;;;;;14.77;9.45;;;;;;;;;;5073479;28;20024;-43
2022/10/16 06:11:30;;;;;;;19.77;9.70;;;;;;;;;;5073257;28;20024;-40
2022/10/16 06:13:57;;;;;;;19.17;10.65;;;;;;;;;;5072837;28;20410;-45
2022/10/16 06:16:23;;;;;;;19.02;9.30;;;;;;;;;;5072869;28;20021;-44
2022/10/16 06:18:50;;;;;;;18.23;9.48;;;;;;;;;;5072504;28;20108;-43
2022/10/16 06:21:20;;;;;;;22.10;10.43;;;;;;;;;;5072989;28;20046;-44
2022/10/16 06:23:45;;;;;;;21.92;11.00;;;;;;;;;;5072826;28;20057;-42
2022/10/16 06:26:13;;;;;;;18.10;10.60;;;;;;;;;;5054557;28;20024;-43
2022/10/16 06:28:38;;;;;;;17.05;9.40;;;;;;;;;;5072524;28;20054;-41
2022/10/16 06:31:05;;;;;;;24.23;11.52;;;;;;;;;;5072933;28;20047;-41
2022/10/16 06:33:30;;;;;;;13.07;8.80;;;;;;;;;;5072575;28;20025;-42
2022/10/16 06:36:03;;;;;;;12.13;7.72;;;;;;;;;;5072766;28;20107;-41
2022/10/16 06:38:28;;;;;;;16.67;8.70;;;;;;;;;;5072518;28;20052;-43
2022/10/16 06:40:54;;;;;;;15.85;8.70;;;;;;;;;;5072687;28;20097;-43
2022/10/16 06:43:19;;;;;;;19.02;8.20;;;;;;;;;;5072349;28;20119;-43
2022/10/16 06:45:50;;;;;;;22.35;9.13;;;;;;;;;;5072239;28;20025;-43
2022/10/16 06:48:15;;;;;;;13.98;9.00;;;;;;;;;;5072635;28;20507;-42
2022/10/16 06:50:40;;;;;;;16.88;9.27;;;;;;;;;;5072713;28;20104;-43
2022/10/16 06:53:06;;;;;;;16.90;9.73;;;;;;;;;;5072449;28;20028;-42
2022/10/16 06:55:31;;;;;;;17.52;9.23;;;;;;;;;;5072582;28;20021;-41
2022/10/16 06:57:56;;;;;;;20.52;9.57;;;;;;;;;;5072104;28;20119;-43
2022/10/16 07:00:22;;;;;;;17.73;8.48;;;;;;;;;;5072325;28;20597;-41
2022/10/16 07:02:47;;;;;;;17.38;8.65;;;;;;;;;;5071888;28;20064;-43
2022/10/16 07:05:12;;;;;;;17.05;9.20;;;;;;;;;;5071693;28;20035;-41
2022/10/16 07:07:38;;;;;;;15.65;8.65;;;;;;;;;;5071913;28;20013;-42
2022/10/16 07:10:03;;;;;;;16.67;8.60;;;;;;;;;;5071617;28;20036;-43
2022/10/16 07:12:28;;;;;;;15.02;8.45;;;;;;;;;;5071727;28;20071;-43
2022/10/16 07:14:55;;;;;;;16.60;9.15;;;;;;;;;;5071443;28;20116;-42
2022/10/16 07:17:20;;;;;;;18.30;8.98;;;;;;;;;;5071093;28;20036;-42
2022/10/16 07:19:46;;;;;;;16.13;8.07;;;;;;;;;;5071865;28;20024;-42
2022/10/16 07:22:11;;;;;;;12.75;7.75;;;;;;;;;;5071305;28;20029;-42
2022/10/16 07:24:36;;;;;;;13.93;8.07;;;;;;;;;;5071976;28;20021;-43
2022/10/16 07:27:02;;;;;;;15.18;8.52;;;;;;;;;;5071435;28;20119;-41
2022/10/16 07:29:27;;;;;;;14.98;8.30;;;;;;;;;;5071499;28;20158;-42
2022/10/16 07:31:52;;;;;;;13.32;7.63;;;;;;;;;;5071425;28;20023;-44
2022/10/16 07:34:18;;;;;;;15.03;7.40;;;;;;;;;;5071454;28;20031;-44
2022/10/16 07:36:44;;;;;;;14.73;8.35;;;;;;;;;;5071496;28;20324;-41
2022/10/16 07:39:09;;;;;;;16.23;7.90;;;;;;;;;;5071273;28;20103;-41
2022/10/16 07:41:36;;;;;;;20.00;10.52;;;;;;;;;;5071097;28;20024;-43
2022/10/16 07:44:02;;;;;;;13.80;8.77;;;;;;;;;;5071270;28;20031;-42
2022/10/16 07:46:28;;;;;;;19.40;8.40;;;;;;;;;;5071272;28;20020;-44
2022/10/16 07:48:53;;;;;;;16.75;8.25;;;;;;;;;;5071072;28;20357;-43
2022/10/16 07:51:20;;;;;;;15.73;8.02;;;;;;;;;;5071218;28;20056;-42
2022/10/16 07:53:45;;;;;;;18.23;7.45;;;;;;;;;;5071205;28;20422;-43
2022/10/16 07:56:11;;;;;;;13.63;7.43;;;;;;;;;;5070829;28;20052;-43
2022/10/16 07:58:37;;;;;;;14.45;7.47;;;;;;;;;;5070975;28;20574;-44
2022/10/16 08:01:06;;;;;;;16.67;7.05;;;;;;;;;;5071277;28;20028;-43
2022/10/16 08:03:32;;;;;;;15.25;7.30;;;;;;;;;;5070745;28;20079;-41
2022/10/16 08:05:58;;;;;;;17.02;6.93;;;;;;;;;;5070971;28;20456;-42
2022/10/16 08:08:23;;;;;;;10.80;6.15;;;;;;;;;;5070949;28;20016;-43
2022/10/16 08:10:49;;;;;;;9.68;6.18;;;;;;;;;;5071046;28;20028;-42
2022/10/16 08:13:15;;;;;;;20.10;7.05;;;;;;;;;;5070805;28;20069;-42
2022/10/16 08:15:41;;;;;;;10.20;5.60;;;;;;;;;;5071089;28;20025;-44
2022/10/16 08:18:06;;;;;;;14.73;5.75;;;;;;;;;;5070876;28;20375;-42
2022/10/16 08:20:32;;;;;;;11.25;6.45;;;;;;;;;;5070705;28;20020;-44
2022/10/16 08:22:58;;;;;;;11.95;5.55;;;;;;;;;;5070866;28;20032;-44
2022/10/16 08:25:25;;;;;;;11.13;5.80;;;;;;;;;;5070736;28;20035;-44
2022/10/16 08:27:50;;;;;;;11.68;6.03;;;;;;;;;;5070813;28;20070;-41
2022/10/16 08:30:17;;;;;;;15.63;5.80;;;;;;;;;;5075090;28;20029;-42
2022/10/16 08:32:42;;;;;;;12.40;5.80;;;;;;;;;;5074613;28;20044;-43
2022/10/16 08:35:10;;;;;;;15.20;5.82;;;;;;;;;;5075068;28;20094;-43
2022/10/16 08:37:36;;;;;;;13.93;6.03;;;;;;;;;;5074650;28;20029;-42
2022/10/16 08:40:02;;;;;;;11.52;5.80;;;;;;;;;;5074910;28;20023;-41
2022/10/16 08:42:46;;;;;;;9.35;5.70;;;;;;;;;;5074231;28;20033;-42
2022/10/16 08:45:24;;;;;;;11.43;6.20;;;;;;;;;;5074503;28;20028;-45
2022/10/16 08:47:51;;;;;;;10.75;5.72;;;;;;;;;;5074877;28;20403;-41
2022/10/16 08:50:24;;;;;;;13.50;5.85;;;;;;;;;;5074700;28;20375;-42
2022/10/16 08:52:50;;;;;;;12.27;6.18;;;;;;;;;;5074310;28;20043;-39
2022/10/16 08:55:32;;;;;;;17.58;6.55;;;;;;;;;;5074376;28;20402;-40
2022/10/16 08:57:58;;;;;;;15.77;5.65;;;;;;;;;;5074746;28;20327;-43
2022/10/16 09:00:24;;;;;;;12.05;5.90;;;;;;;;;;5074208;28;20479;-42
2022/10/16 09:03:03;;;;;;;13.52;5.53;;;;;;;;;;5074439;28;20036;-38
2022/10/16 09:05:34;;;;;;;16.77;6.18;;;;;;;;;;5073628;28;20020;-42
2022/10/16 09:08:00;;;;;;;14.07;5.18;;;;;;;;;;5074290;28;20028;-42
2022/10/16 09:10:28;;;;;;;12.50;5.18;;;;;;;;;;5073990;28;20025;-44
2022/10/16 09:13:12;;;;;;;8.38;5.45;;;;;;;;;;5074291;28;20048;-40
2022/10/16 09:15:52;;;;;;;11.52;5.20;;;;;;;;;;5073604;28;20020;-41
2022/10/16 09:18:37;;;;;;;9.75;5.75;;;;;;;;;;5074354;28;20502;-39
2022/10/16 09:21:10;;;;;;;17.83;5.75;;;;;;;;;;5074049;28;20073;-43
2022/10/16 09:23:36;;;;;;;16.70;5.70;;;;;;;;;;5073863;28;20489;-44
2022/10/16 09:26:02;;;;;;;10.52;5.60;;;;;;;;;;5073757;28;20713;-40
2022/10/16 09:28:27;;;;;;;8.38;5.13;;;;;;;;;;5073182;28;20024;-40
2022/10/16 09:30:53;;;;;;;10.45;5.38;;;;;;;;;;5073391;28;20051;-42
2022/10/16 09:33:20;;;;;;;11.70;5.18;;;;;;;;;;5073719;28;20024;-41
2022/10/16 09:35:50;;;;;;;11.85;5.45;;;;;;;;;;5073081;28;20017;-42
2022/10/16 09:38:22;;;;;;;8.95;5.40;;;;;;;;;;5073927;28;20093;-41
2022/10/16 09:40:48;;;;;;;10.50;5.00;;;;;;;;;;5072252;28;20476;-43
2022/10/16 09:43:30;;;;;;;9.73;4.97;;;;;;;;;;5073775;28;20048;-43
2022/10/16 09:46:06;;;;;;;8.52;4.88;;;;;;;;;;5073213;28;20025;-43
2022/10/16 09:48:35;;;;;;;9.20;5.18;;;;;;;;;;5074274;28;20087;-42
2022/10/16 09:51:02;;;;;;;7.57;4.43;;;;;;;;;;5073755;28;20559;-44
2022/10/16 09:53:38;;;;;;;10.52;5.07;;;;;;;;;;5073374;28;20024;-44
2022/10/16 09:56:06;;;;;;;11.20;5.03;;;;;;;;;;5072403;28;20041;-45
2022/10/16 09:58:33;;;;;;;10.80;6.00;;;;;;;;;;5072872;28;20401;-44
2022/10/16 10:00:58;;;;;;;8.93;4.00;;;;;;;;;;5073694;28;20460;-41
2022/10/16 10:03:34;;;;;;;13.25;4.80;;;;;;;;;;5072973;28;20040;-38
2022/10/16 10:06:03;;;;;;;11.57;4.13;;;;;;;;;;5073267;28;20135;-39
2022/10/16 10:08:28;;;;;;;12.40;4.88;;;;;;;;;;5073575;28;20028;-40
2022/10/16 10:10:54;;;;;;;11.27;4.78;;;;;;;;;;5072943;28;20024;-40
2022/10/16 10:13:21;;;;;;;8.55;4.80;;;;;;;;;;5073266;28;20567;-39
2022/10/16 10:15:46;;;;;;;10.77;5.00;;;;;;;;;;5072859;28;20024;-39
2022/10/16 10:18:16;;;;;;;6.57;4.47;;;;;;;;;;5073273;28;20024;-40
2022/10/16 10:20:42;;;;;;;23.63;5.57;;;;;;;;;;5073163;28;20016;-40
2022/10/16 10:23:21;;;;;;;10.30;4.30;;;;;;;;;;5072438;28;20039;-41
2022/10/16 10:25:52;;;;;;;7.63;4.45;;;;;;;;;;5072384;28;20025;-41
2022/10/16 10:28:18;;;;;;;7.72;4.60;;;;;;;;;;5072774;28;20020;-41
2022/10/16 10:30:47;;;;;;;10.07;4.22;;;;;;;;;;5054808;28;20028;-43
2022/10/16 10:33:12;;;;;;;;;;;;;;;;;;5073457;28;20028;-42
2022/10/16 10:35:47;;;;;;;9.90;4.82;;;;;;;;;;5072696;28;19910;-41
2022/10/16 10:38:18;;;;;;;9.48;4.63;;;;;;;;;;5072479;28;20403;-37
2022/10/16 10:40:49;;;;;;;13.45;4.05;;;;;;;;;;5072103;28;20017;-41
2022/10/16 10:43:33;;;;;;;10.45;4.00;;;;;;;;;;5072474;28;20430;-41
2022/10/16 10:46:03;;;;;;;8.50;4.93;;;;;;;;;;5072284;28;20036;-40
2022/10/16 10:48:28;;;;;;;8.05;4.05;;;;;;;;;;5072392;28;20021;-41
2022/10/16 10:51:00;;;;;;;8.95;4.45;;;;;;;;;;5071591;28;20020;-40
2022/10/16 10:53:29;;;;;;;9.35;4.03;;;;;;;;;;5072494;28;20448;-38
2022/10/16 10:56:00;;;;;;;10.18;4.40;;;;;;;;;;5072104;28;20021;-42
2022/10/16 10:58:34;;;;;;;9.48;4.50;;;;;;;;;;5072192;28;20024;-37
2022/10/16 11:00:59;;;;;;;9.77;3.80;;;;;;;;;;5072017;28;20081;-41
2022/10/16 11:03:34;;;;;;;6.70;4.30;;;;;;;;;;5071597;28;20414;-42
2022/10/16 11:05:59;;;;;;;10.80;4.25;;;;;;;;;;5071658;28;20028;-40
2022/10/16 11:08:31;;;;;;;7.40;3.92;;;;;;;;;;5071979;28;20406;-42
2022/10/16 11:10:59;;;;;;;8.32;3.40;;;;;;;;;;5071732;28;20029;-43
2022/10/16 11:13:29;;;;;;;6.97;4.32;;;;;;;;;;5072191;28;20025;-42
2022/10/16 11:15:57;;;;;;;13.07;4.75;;;;;;;;;;5071255;28;20028;-39
2022/10/16 11:18:40;;;;;;;9.77;4.93;;;;;;;;;;5071614;28;20123;-43
2022/10/16 11:21:08;;;;;;;8.70;4.43;;;;;;;;;;5071550;28;20028;-41
2022/10/16 11:23:42;;;;;;;8.85;4.18;;;;;;;;;;5071306;28;20032;-44
2022/10/16 11:26:14;;;;;;;8.02;4.28;;;;;;;;;;5071256;28;20024;-41
2022/10/16 11:28:48;;;;;;;8.00;3.50;;;;;;;;;;5071114;28;20395;-43
2022/10/16 11:31:17;;;;;;;7.93;4.40;;;;;;;;;;5071541;28;20069;-40
2022/10/16 11:33:57;;;;;;;8.30;4.28;;;;;;;;;;5071513;28;20020;-40
2022/10/16 11:36:25;;;;;;;5.80;4.10;;;;;;;;;;5071757;28;20475;-43
2022/10/16 11:39:00;;;;;;;6.13;3.67;;;;;;;;;;5070917;28;20056;-39
2022/10/16 11:41:34;;;;;;;6.20;4.22;;;;;;;;;;5071247;28;20035;-42
2022/10/16 11:44:09;;;;;;;10.82;3.92;;;;;;;;;;5071683;28;20032;-38
2022/10/16 11:46:37;;;;;;;12.77;4.40;;;;;;;;;;5070880;28;20024;-42
2022/10/16 11:49:08;;;;;;;7.95;3.92;;;;;;;;;;5071429;28;20019;-40
2022/10/16 11:51:38;;;;;;;7.65;4.03;;;;;;;;;;5071458;28;20426;-42
2022/10/16 11:54:22;;;;;;;7.70;4.50;;;;;;;;;;5071400;28;20464;-40
2022/10/16 11:56:48;;;;;;;9.98;4.50;;;;;;;;;;5070658;28;20052;-38
2022/10/16 11:59:17;;;;;;;16.55;4.28;;;;;;;;;;5071193;28;20024;-38
2022/10/16 12:01:42;;;;;;;5.88;3.83;;;;;;;;;;5070719;28;20028;-41
2022/10/16 12:04:13;;;;;;;7.72;3.90;;;;;;;;;;5070111;28;20033;-42
2022/10/16 12:06:39;;;;;;;11.00;4.43;;;;;;;;;;5071114;28;20516;-42
2022/10/16 12:09:04;;;;;;;5.43;3.80;;;;;;;;;;5071137;28;20100;-43
2022/10/16 12:11:29;;;;;;;10.90;4.22;;;;;;;;;;5053379;28;20622;-42
2022/10/16 12:14:04;;;;;;;5.80;3.92;;;;;;;;;;5071246;28;20541;-42
2022/10/16 12:16:29;;;;;;;13.77;3.97;;;;;;;;;;5070338;28;20032;-41
2022/10/16 12:19:15;;;;;;;6.93;3.83;;;;;;;;;;5071361;28;20107;-41
2022/10/16 12:21:41;;;;;;;12.75;4.47;;;;;;;;;;5070239;28;20040;-43
2022/10/16 12:24:19;;;;;;;8.13;3.88;;;;;;;;;;5071126;28;20028;-43
2022/10/16 12:26:45;;;;;;;9.10;3.97;;;;;;;;;;5070513;28;20460;-44
2022/10/16 12:29:31;;;;;;;6.80;4.22;;;;;;;;;;5071437;28;20023;-42
2022/10/16 12:31:56;;;;;;;7.53;3.63;;;;;;;;;;5052794;28;20090;-45
2022/10/16 12:34:23;;;;;;;7.97;4.60;;;;;;;;;;5070788;28;20545;-46
2022/10/16 12:36:49;;;;;;;7.00;4.22;;;;;;;;;;5070695;28;20135;-42
2022/10/16 12:39:24;;;;;;;6.50;3.55;;;;;;;;;;5070588;28;20111;-43
2022/10/16 12:42:18;;;;;;;7.30;3.97;;;;;;;;;;5070952;28;20037;-43
2022/10/16 12:44:43;;;;;;;9.27;3.97;;;;;;;;;;5070524;28;20056;-42
2022/10/16 12:47:18;;;;;;;5.85;3.47;;;;;;;;;;5071188;28;20056;-42
2022/10/16 12:49:49;;;;;;;7.30;3.97;;;;;;;;;;5070169;28;20036;-43
2022/10/16 12:52:37;;;;;;;7.15;3.67;;;;;;;;;;5070274;28;20063;-42
2022/10/16 12:55:04;;;;;;;10.48;4.05;;;;;;;;;;5057079;28;20475;-41
2022/10/16 12:57:42;;;;;;;7.32;4.10;;;;;;;;;;5070505;28;20048;-44
2022/10/16 13:00:10;;;;;;;8.25;4.22;;;;;;;;;;5070623;28;20025;-37
2022/10/16 13:02:44;;;;;;;8.37;3.97;;;;;;;;;;5070006;28;20036;-44
2022/10/16 13:05:12;;;;;;;7.35;4.00;;;;;;;;;;5070625;28;20024;-38
2022/10/16 13:07:44;;;;;;;8.35;3.70;;;;;;;;;;5070448;28;20241;-41
2022/10/16 13:10:12;;;;;;;5.03;3.60;;;;;;;;;;5070684;28;20029;-39
2022/10/16 13:12:56;;;;;;;5.07;3.60;;;;;;;;;;5070372;28;20025;-42
2022/10/16 13:15:21;;;;;;;7.93;3.85;;;;;;;;;;5072457;28;20108;-41
2022/10/16 13:17:56;;;;;;;8.75;3.72;;;;;;;;;;5074138;28;20056;-42
2022/10/16 13:20:28;;;;;;;7.88;3.40;;;;;;;;;;5074471;28;20326;-43
2022/10/16 13:22:53;;;;;;;9.90;4.10;;;;;;;;;;5073855;28;20076;-42
2022/10/16 13:25:21;;;;;;;7.23;3.67;;;;;;;;;;5073703;28;20044;-41
2022/10/16 13:27:57;;;;;;;7.63;3.20;;;;;;;;;;5073254;28;20028;-40
2022/10/16 13:30:24;;;;;;;11.25;4.15;;;;;;;;;;5073784;28;20249;-39
2022/10/16 13:32:52;;;;;;;11.38;3.90;;;;;;;;;;5073698;28;20020;-41
2022/10/16 13:35:22;;;;;;;7.35;3.90;;;;;;;;;;5074076;28;20016;-41
2022/10/16 13:37:47;;;;;;;10.52;4.18;;;;;;;;;;5073372;28;20024;-42
2022/10/16 13:40:21;;;;;;;10.20;3.90;;;;;;;;;;5073276;28;20039;-42
2022/10/16 13:42:46;;;;;;;9.63;4.07;;;;;;;;;;5073545;28;20036;-42
2022/10/16 13:45:21;;;;;;;10.07;4.32;;;;;;;;;;5073788;28;20376;-42
2022/10/16 13:47:47;;;;;;;17.30;3.92;;;;;;;;;;5072958;28;20025;-41
2022/10/16 13:50:14;;;;;;;15.50;3.92;;;;;;;;;;5073871;28;20040;-40
2022/10/16 13:52:39;;;;;;;7.72;3.80;;;;;;;;;;5073143;28;20441;-42
2022/10/16 13:55:10;;;;;;;10.15;3.88;;;;;;;;;;5073427;28;20107;-42
2022/10/16 13:57:36;;;;;;;5.15;3.90;;;;;;;;;;5073579;28;20053;-41
2022/10/16 14:00:01;;;;;;;9.85;3.97;;;;;;;;;;5073698;28;20031;-42
2022/10/16 14:02:34;;;;;;;12.77;4.05;;;;;;;;;;5073128;28;20024;-37
2022/10/16 14:05:01;;;;;;;5.97;3.58;;;;;;;;;;5073499;28;20036;-40
2022/10/16 14:07:28;;;;;;;6.78;3.63;;;;;;;;;;5073242;28;20020;-41
2022/10/16 14:09:53;;;;;;;6.38;3.58;;;;;;;;;;5073053;28;20428;-42
2022/10/16 14:12:19;;;;;;;7.90;3.35;;;;;;;;;;5072705;28;20057;-44
2022/10/16 14:14:46;;;;;;;8.98;3.70;;;;;;;;;;5072972;28;20024;-39
2022/10/16 14:17:37;;;;;;;7.22;3.38;;;;;;;;;;5071955;28;20016;-42
2022/10/16 14:20:04;;;;;;;12.75;3.67;;;;;;;;;;5067976;28;20068;-41
2022/10/16 14:22:34;;;;;;;8.40;4.03;;;;;;;;;;5072727;28;20072;-42
2022/10/16 14:25:00;;;;;;;7.82;3.63;;;;;;;;;;5073216;28;20111;-41
2022/10/16 14:27:30;;;;;;;8.10;3.38;;;;;;;;;;5072072;28;20103;-42
2022/10/16 14:30:08;;;;;;;7.55;3.83;;;;;;;;;;5072977;28;20032;-43
2022/10/16 14:32:34;;;;;;;9.20;4.82;;;;;;;;;;5072599;28;20074;-42
2022/10/16 14:34:59;;;;;;;9.60;3.80;;;;;;;;;;5072710;28;20028;-39
2022/10/16 14:37:26;;;;;;;5.95;3.67;;;;;;;;;;5071638;28;20035;-42
2022/10/16 14:39:52;;;;;;;7.13;3.70;;;;;;;;;;5072177;28;20036;-43